Terminal Aerodrome Forecast
Issued by NWS Amarillo, TX

Current Version | Previous Version | Text Only | Print | Product List | Glossary On
Versions: 1 2 3 4 5 6 7 8 9 10 11 12
000
FTUS44 KAMA 261724
TAFAMA
TAF
KAMA 261724Z 2618/2718 33009KT P6SM SKC
     FM261900 23008KT P6SM OVC100
     FM270100 16010KT P6SM SKC
     FM271500 23019G26KT P6SM SKC=

USA.gov is the U.S. government's official web portal to all federal, state and local government web resources and services.